sensor_id;sensor_type;location;lat;lon;timestamp;pressure;altitude;pressure_sealevel;temperature;humidity
33949;BME280;20229;49.856;19.030;2023-05-28T00:01:11;102084.79;;;9.14;84.25
33949;BME280;20229;49.856;19.030;2023-05-28T00:06:30;102076.84;;;9.06;84.66
33949;BME280;20229;49.856;19.030;2023-05-28T00:11:44;102074.34;;;8.99;84.94
33949;BME280;20229;49.856;19.030;2023-05-28T00:16:58;102072.67;;;8.93;85.54
33949;BME280;20229;49.856;19.030;2023-05-28T00:22:12;102067.41;;;8.87;85.50
33949;BME280;20229;49.856;19.030;2023-05-28T00:27:25;102059.34;;;8.84;86.19
33949;BME280;20229;49.856;19.030;2023-05-28T00:32:39;102056.77;;;8.78;85.54
33949;BME280;20229;49.856;19.030;2023-05-28T00:37:53;102056.01;;;8.73;86.54
33949;BME280;20229;49.856;19.030;2023-05-28T00:43:07;102055.30;;;8.65;86.78
33949;BME280;20229;49.856;19.030;2023-05-28T00:48:23;102047.22;;;8.61;87.17
33949;BME280;20229;49.856;19.030;2023-05-28T00:53:38;102051.93;;;8.55;87.12
33949;BME280;20229;49.856;19.030;2023-05-28T00:58:52;102048.38;;;8.51;87.73
33949;BME280;20229;49.856;19.030;2023-05-28T01:04:08;102033.16;;;8.44;87.01
33949;BME280;20229;49.856;19.030;2023-05-28T01:09:24;102038.71;;;8.41;87.33
33949;BME280;20229;49.856;19.030;2023-05-28T01:14:39;102031.60;;;8.34;88.36
33949;BME280;20229;49.856;19.030;2023-05-28T01:19:53;102032.65;;;8.28;87.79
33949;BME280;20229;49.856;19.030;2023-05-28T01:25:08;102022.81;;;8.23;88.46
33949;BME280;20229;49.856;19.030;2023-05-28T01:30:25;102018.38;;;8.19;88.75
33949;BME280;20229;49.856;19.030;2023-05-28T01:35:40;102006.81;;;8.10;88.87
33949;BME280;20229;49.856;19.030;2023-05-28T01:40:55;102009.66;;;8.06;88.84
33949;BME280;20229;49.856;19.030;2023-05-28T01:46:10;102007.91;;;8.02;89.11
33949;BME280;20229;49.856;19.030;2023-05-28T01:51:24;102013.46;;;7.99;88.83
33949;BME280;20229;49.856;19.030;2023-05-28T01:56:37;102019.98;;;7.92;90.12
33949;BME280;20229;49.856;19.030;2023-05-28T02:01:51;102005.64;;;7.85;89.59
33949;BME280;20229;49.856;19.030;2023-05-28T02:07:05;102010.28;;;7.80;89.52
33949;BME280;20229;49.856;19.030;2023-05-28T02:12:23;102013.95;;;7.77;90.41
33949;BME280;20229;49.856;19.030;2023-05-28T02:17:37;102013.24;;;7.71;90.02
33949;BME280;20229;49.856;19.030;2023-05-28T02:22:51;102011.50;;;7.66;90.67
33949;BME280;20229;49.856;19.030;2023-05-28T02:28:04;102009.85;;;7.59;90.49
33949;BME280;20229;49.856;19.030;2023-05-28T02:33:18;102008.97;;;7.59;91.26
33949;BME280;20229;49.856;19.030;2023-05-28T02:38:32;102004.59;;;7.53;91.17
33949;BME280;20229;49.856;19.030;2023-05-28T02:43:46;101998.27;;;7.51;91.22
33949;BME280;20229;49.856;19.030;2023-05-28T02:48:59;102012.87;;;7.47;91.32
33949;BME280;20229;49.856;19.030;2023-05-28T02:54:15;102006.56;;;7.45;91.50
33949;BME280;20229;49.856;19.030;2023-05-28T02:59:29;102006.66;;;7.42;91.12
33949;BME280;20229;49.856;19.030;2023-05-28T03:04:43;102008.43;;;7.43;91.57
33949;BME280;20229;49.856;19.030;2023-05-28T03:09:57;102004.78;;;7.44;91.51
33949;BME280;20229;49.856;19.030;2023-05-28T03:15:12;102002.93;;;7.46;91.55
33949;BME280;20229;49.856;19.030;2023-05-28T03:20:27;101994.73;;;7.48;91.60
33949;BME280;20229;49.856;19.030;2023-05-28T03:25:42;102000.93;;;7.54;91.08
33949;BME280;20229;49.856;19.030;2023-05-28T03:30:57;101998.07;;;7.60;91.44
33949;BME280;20229;49.856;19.030;2023-05-28T03:36:11;101994.30;;;7.66;92.13
33949;BME280;20229;49.856;19.030;2023-05-28T03:41:25;101987.77;;;7.75;91.90
33949;BME280;20229;49.856;19.030;2023-05-28T03:46:39;101992.88;;;7.87;91.69
33949;BME280;20229;49.856;19.030;2023-05-28T03:51:54;102001.63;;;8.00;92.10
33949;BME280;20229;49.856;19.030;2023-05-28T03:57:09;102000.28;;;8.18;91.98
33949;BME280;20229;49.856;19.030;2023-05-28T04:02:23;101990.70;;;8.38;92.57
33949;BME280;20229;49.856;19.030;2023-05-28T04:07:37;101993.63;;;8.64;92.60
33949;BME280;20229;49.856;19.030;2023-05-28T04:12:52;101992.16;;;8.83;91.61
33949;BME280;20229;49.856;19.030;2023-05-28T04:18:12;101991.53;;;9.04;90.14
33949;BME280;20229;49.856;19.030;2023-05-28T04:23:26;101993.52;;;9.29;90.11
33949;BME280;20229;49.856;19.030;2023-05-28T04:28:40;101991.84;;;9.54;89.45
33949;BME280;20229;49.856;19.030;2023-05-28T04:34:00;101989.16;;;9.81;89.49
33949;BME280;20229;49.856;19.030;2023-05-28T04:39:18;101981.10;;;10.04;88.22
33949;BME280;20229;49.856;19.030;2023-05-28T04:44:39;101981.97;;;10.33;86.57
33949;BME280;20229;49.856;19.030;2023-05-28T04:49:53;101977.90;;;10.70;85.91
33949;BME280;20229;49.856;19.030;2023-05-28T04:55:07;101974.81;;;11.04;84.32
33949;BME280;20229;49.856;19.030;2023-05-28T05:00:21;101974.13;;;11.44;82.36
33949;BME280;20229;49.856;19.030;2023-05-28T05:05:46;101974.84;;;11.95;81.30
33949;BME280;20229;49.856;19.030;2023-05-28T05:11:06;101979.26;;;14.15;79.61
33949;BME280;20229;49.856;19.030;2023-05-28T05:16:28;101979.56;;;17.98;62.92
33949;BME280;20229;49.856;19.030;2023-05-28T05:21:43;101968.58;;;20.39;55.53
33949;BME280;20229;49.856;19.030;2023-05-28T05:26:57;101974.29;;;22.30;50.47
33949;BME280;20229;49.856;19.030;2023-05-28T05:32:11;101970.98;;;24.31;46.46
33949;BME280;20229;49.856;19.030;2023-05-28T05:37:25;101967.48;;;25.82;38.69
33949;BME280;20229;49.856;19.030;2023-05-28T05:42:39;101967.20;;;26.66;39.35
33949;BME280;20229;49.856;19.030;2023-05-28T05:48:00;101955.11;;;27.70;36.52
33949;BME280;20229;49.856;19.030;2023-05-28T05:53:16;101951.88;;;29.15;34.46
33949;BME280;20229;49.856;19.030;2023-05-28T05:58:30;101949.20;;;29.93;27.39
33949;BME280;20229;49.856;19.030;2023-05-28T06:03:51;101941.23;;;30.82;29.43
33949;BME280;20229;49.856;19.030;2023-05-28T06:09:05;101937.82;;;31.99;29.65
33949;BME280;20229;49.856;19.030;2023-05-28T06:14:19;101939.50;;;32.94;26.21
33949;BME280;20229;49.856;19.030;2023-05-28T06:19:34;101938.58;;;33.77;27.49
33949;BME280;20229;49.856;19.030;2023-05-28T06:24:48;101937.59;;;34.73;23.49
33949;BME280;20229;49.856;19.030;2023-05-28T06:30:07;101938.72;;;35.05;25.21
33949;BME280;20229;49.856;19.030;2023-05-28T06:35:21;101945.91;;;35.34;21.98
33949;BME280;20229;49.856;19.030;2023-05-28T06:40:36;101931.20;;;35.71;23.54
33949;BME280;20229;49.856;19.030;2023-05-28T06:45:50;101935.90;;;36.48;21.56
33949;BME280;20229;49.856;19.030;2023-05-28T06:51:04;101933.19;;;37.60;22.97
33949;BME280;20229;49.856;19.030;2023-05-28T06:56:18;101930.20;;;38.22;20.52
33949;BME280;20229;49.856;19.030;2023-05-28T07:01:32;101925.99;;;38.96;19.21
33949;BME280;20229;49.856;19.030;2023-05-28T07:06:46;101916.70;;;39.36;18.51
33949;BME280;20229;49.856;19.030;2023-05-28T07:12:00;101911.32;;;39.75;18.19
33949;BME280;20229;49.856;19.030;2023-05-28T07:17:14;101909.53;;;39.98;19.47
33949;BME280;20229;49.856;19.030;2023-05-28T07:22:28;101914.20;;;39.05;19.23
33949;BME280;20229;49.856;19.030;2023-05-28T07:27:45;101902.89;;;39.57;17.72
33949;BME280;20229;49.856;19.030;2023-05-28T07:32:59;101907.60;;;39.86;19.90
33949;BME280;20229;49.856;19.030;2023-05-28T07:38:13;101904.00;;;39.79;18.55
33949;BME280;20229;49.856;19.030;2023-05-28T07:43:28;101897.08;;;39.52;18.88
33949;BME280;20229;49.856;19.030;2023-05-28T07:48:42;101896.02;;;38.76;17.14
33949;BME280;20229;49.856;19.030;2023-05-28T07:53:57;101896.09;;;38.87;19.06
33949;BME280;20229;49.856;19.030;2023-05-28T07:59:10;101881.23;;;39.84;16.96
33949;BME280;20229;49.856;19.030;2023-05-28T08:04:27;101883.29;;;40.01;17.78
33949;BME280;20229;49.856;19.030;2023-05-28T08:09:42;101880.43;;;40.01;18.21
33949;BME280;20229;49.856;19.030;2023-05-28T08:14:56;101889.43;;;38.63;17.66
33949;BME280;20229;49.856;19.030;2023-05-28T08:20:13;101872.95;;;35.35;22.25
33949;BME280;20229;49.856;19.030;2023-05-28T08:25:27;101877.51;;;33.27;23.78
33949;BME280;20229;49.856;19.030;2023-05-28T08:30:40;101880.02;;;32.59;24.09
33949;BME280;20229;49.856;19.030;2023-05-28T08:35:54;101885.56;;;31.58;25.53
33949;BME280;20229;49.856;19.030;2023-05-28T08:41:09;101880.65;;;30.78;25.90
33949;BME280;20229;49.856;19.030;2023-05-28T08:46:23;101876.87;;;30.17;26.78
33949;BME280;20229;49.856;19.030;2023-05-28T08:51:43;101874.93;;;29.16;27.84
33949;BME280;20229;49.856;19.030;2023-05-28T08:57:04;101876.75;;;28.59;29.24
33949;BME280;20229;49.856;19.030;2023-05-28T09:02:25;101860.06;;;27.67;29.16
33949;BME280;20229;49.856;19.030;2023-05-28T09:07:39;101863.93;;;27.23;29.67
33949;BME280;20229;49.856;19.030;2023-05-28T09:13:00;101856.20;;;26.91;29.97
33949;BME280;20229;49.856;19.030;2023-05-28T09:18:37;101852.13;;;26.59;30.40
33949;BME280;20229;49.856;19.030;2023-05-28T09:23:43;101853.59;;;26.28;30.78
33949;BME280;20229;49.856;19.030;2023-05-28T09:35:25;101837.29;;;25.87;31.96
33949;BME280;20229;49.856;19.030;2023-05-28T09:40:50;101831.91;;;25.76;32.66
33949;BME280;20229;49.856;19.030;2023-05-28T09:46:07;101826.10;;;25.87;34.09
33949;BME280;20229;49.856;19.030;2023-05-28T09:51:27;101830.61;;;25.70;33.76
33949;BME280;20229;49.856;19.030;2023-05-28T09:56:42;101825.96;;;25.06;33.71
33949;BME280;20229;49.856;19.030;2023-05-28T10:07:28;101835.85;;;24.91;37.25
33949;BME280;20229;49.856;19.030;2023-05-28T10:12:45;101825.45;;;24.83;35.02
33949;BME280;20229;49.856;19.030;2023-05-28T10:18:03;101813.97;;;24.86;35.70
33949;BME280;20229;49.856;19.030;2023-05-28T10:23:21;101820.13;;;24.90;34.14
33949;BME280;20229;49.856;19.030;2023-05-28T10:28:35;101812.55;;;24.72;36.84
33949;BME280;20229;49.856;19.030;2023-05-28T10:33:50;101803.85;;;24.85;35.89
33949;BME280;20229;49.856;19.030;2023-05-28T10:39:05;101807.59;;;25.03;35.97
33949;BME280;20229;49.856;19.030;2023-05-28T10:44:19;101805.54;;;25.06;35.52
33949;BME280;20229;49.856;19.030;2023-05-28T10:49:33;101805.05;;;25.10;35.48
33949;BME280;20229;49.856;19.030;2023-05-28T10:54:51;101804.48;;;25.16;35.40
33949;BME280;20229;49.856;19.030;2023-05-28T11:00:06;101803.91;;;25.13;35.49
33949;BME280;20229;49.856;19.030;2023-05-28T11:05:27;101804.23;;;25.00;35.19
33949;BME280;20229;49.856;19.030;2023-05-28T11:10:43;101805.56;;;24.96;34.54
33949;BME280;20229;49.856;19.030;2023-05-28T11:16:08;101795.67;;;25.01;36.64
33949;BME280;20229;49.856;19.030;2023-05-28T11:21:22;101798.32;;;25.13;36.53
33949;BME280;20229;49.856;19.030;2023-05-28T11:26:35;101794.12;;;24.89;34.51
33949;BME280;20229;49.856;19.030;2023-05-28T11:31:49;101784.75;;;25.08;38.03
33949;BME280;20229;49.856;19.030;2023-05-28T11:37:03;101792.95;;;25.19;36.80
33949;BME280;20229;49.856;19.030;2023-05-28T11:42:22;101777.80;;;25.22;36.23
33949;BME280;20229;49.856;19.030;2023-05-28T11:47:40;101780.38;;;25.06;35.74
33949;BME280;20229;49.856;19.030;2023-05-28T11:52:55;101776.84;;;25.13;37.57
33949;BME280;20229;49.856;19.030;2023-05-28T11:58:12;101767.11;;;25.17;35.33
33949;BME280;20229;49.856;19.030;2023-05-28T12:03:26;101770.95;;;25.16;35.90
33949;BME280;20229;49.856;19.030;2023-05-28T12:08:46;101776.52;;;25.16;35.95
33949;BME280;20229;49.856;19.030;2023-05-28T12:19:32;101765.41;;;24.97;35.19
33949;BME280;20229;49.856;19.030;2023-05-28T12:24:49;101766.37;;;24.88;35.15
33949;BME280;20229;49.856;19.030;2023-05-28T12:30:07;101762.63;;;24.97;37.98
33949;BME280;20229;49.856;19.030;2023-05-28T12:35:20;101756.98;;;25.16;35.12
33949;BME280;20229;49.856;19.030;2023-05-28T12:40:35;101760.65;;;25.07;36.27
33949;BME280;20229;49.856;19.030;2023-05-28T12:45:50;101762.41;;;25.08;37.62
33949;BME280;20229;49.856;19.030;2023-05-28T12:51:04;101754.51;;;25.03;37.82
33949;BME280;20229;49.856;19.030;2023-05-28T12:56:24;101752.44;;;25.06;35.95
33949;BME280;20229;49.856;19.030;2023-05-28T13:01:39;101740.01;;;24.90;35.03
33949;BME280;20229;49.856;19.030;2023-05-28T13:06:55;101745.86;;;24.97;36.11
33949;BME280;20229;49.856;19.030;2023-05-28T13:12:12;101742.54;;;24.84;34.83
33949;BME280;20229;49.856;19.030;2023-05-28T13:17:26;101741.05;;;24.89;36.63
33949;BME280;20229;49.856;19.030;2023-05-28T13:22:40;101728.53;;;24.93;35.63
33949;BME280;20229;49.856;19.030;2023-05-28T13:27:54;101729.52;;;24.74;34.73
33949;BME280;20229;49.856;19.030;2023-05-28T13:33:09;101726.09;;;24.53;35.00
33949;BME280;20229;49.856;19.030;2023-05-28T13:38:25;101726.12;;;24.43;35.88
33949;BME280;20229;49.856;19.030;2023-05-28T13:43:40;101719.19;;;24.47;35.14
33949;BME280;20229;49.856;19.030;2023-05-28T13:48:55;101710.78;;;24.57;35.42
33949;BME280;20229;49.856;19.030;2023-05-28T13:54:12;101708.21;;;24.26;34.98
33949;BME280;20229;49.856;19.030;2023-05-28T13:59:26;101704.37;;;24.27;35.15
33949;BME280;20229;49.856;19.030;2023-05-28T14:04:40;101713.33;;;24.41;34.57
33949;BME280;20229;49.856;19.030;2023-05-28T14:09:55;101698.09;;;24.25;34.68
33949;BME280;20229;49.856;19.030;2023-05-28T14:15:09;101704.91;;;24.03;34.86
33949;BME280;20229;49.856;19.030;2023-05-28T14:20:23;101693.77;;;23.94;36.04
33949;BME280;20229;49.856;19.030;2023-05-28T14:25:37;101688.60;;;23.99;36.61
33949;BME280;20229;49.856;19.030;2023-05-28T14:30:51;101679.65;;;24.05;36.15
33949;BME280;20229;49.856;19.030;2023-05-28T14:36:07;101671.16;;;23.97;35.92
33949;BME280;20229;49.856;19.030;2023-05-28T14:41:28;101664.55;;;23.98;36.06
33949;BME280;20229;49.856;19.030;2023-05-28T14:46:41;101664.98;;;24.03;37.44
33949;BME280;20229;49.856;19.030;2023-05-28T14:57:27;101665.58;;;23.97;35.62
33949;BME280;20229;49.856;19.030;2023-05-28T15:02:41;101665.58;;;23.97;37.07
33949;BME280;20229;49.856;19.030;2023-05-28T15:07:55;101670.58;;;23.93;35.88
33949;BME280;20229;49.856;19.030;2023-05-28T15:13:09;101665.90;;;23.74;36.20
33949;BME280;20229;49.856;19.030;2023-05-28T15:18:23;101657.29;;;23.68;36.25
33949;BME280;20229;49.856;19.030;2023-05-28T15:23:37;101659.58;;;23.62;36.46
33949;BME280;20229;49.856;19.030;2023-05-28T15:28:51;101654.91;;;23.44;36.49
33949;BME280;20229;49.856;19.030;2023-05-28T15:34:05;101654.76;;;23.35;37.12
33949;BME280;20229;49.856;19.030;2023-05-28T15:39:21;101652.12;;;23.34;37.02
33949;BME280;20229;49.856;19.030;2023-05-28T15:44:37;101653.87;;;23.35;37.19
33949;BME280;20229;49.856;19.030;2023-05-28T15:49:51;101658.43;;;23.26;36.47
33949;BME280;20229;49.856;19.030;2023-05-28T15:55:07;101661.65;;;23.12;37.86
33949;BME280;20229;49.856;19.030;2023-05-28T16:00:27;101650.66;;;23.01;37.35
33949;BME280;20229;49.856;19.030;2023-05-28T16:05:42;101651.22;;;22.95;37.07
33949;BME280;20229;49.856;19.030;2023-05-28T16:10:56;101650.85;;;22.78;37.19
33949;BME280;20229;49.856;19.030;2023-05-28T16:16:12;101650.22;;;22.65;36.53
33949;BME280;20229;49.856;19.030;2023-05-28T16:21:29;101649.34;;;22.55;37.65
33949;BME280;20229;49.856;19.030;2023-05-28T16:26:48;101651.93;;;22.47;37.83
33949;BME280;20229;49.856;19.030;2023-05-28T16:32:02;101648.65;;;22.32;38.04
33949;BME280;20229;49.856;19.030;2023-05-28T16:37:22;101649.78;;;22.19;37.95
33949;BME280;20229;49.856;19.030;2023-05-28T16:42:42;101646.16;;;22.08;37.87
33949;BME280;20229;49.856;19.030;2023-05-28T16:48:01;101649.64;;;22.00;38.27
33949;BME280;20229;49.856;19.030;2023-05-28T16:53:20;101649.03;;;21.96;38.55
